sensor_id;sensor_type;location;lat;lon;timestamp;temperature;humidity
8008;DHT22;4049;49.468;11.200;2023-09-19T00:00:07;16.90;99.90
8008;DHT22;4049;49.468;11.200;2023-09-19T00:02:34;16.90;99.90
8008;DHT22;4049;49.468;11.200;2023-09-19T00:05:02;16.90;99.90
8008;DHT22;4049;49.468;11.200;2023-09-19T00:07:30;16.90;99.90
8008;DHT22;4049;49.468;11.200;2023-09-19T00:09:57;16.80;99.90
8008;DHT22;4049;49.468;11.200;2023-09-19T00:12:24;16.80;99.90
8008;DHT22;4049;49.468;11.200;2023-09-19T00:14:52;16.80;99.90
8008;DHT22;4049;49.468;11.200;2023-09-19T00:17:19;16.80;99.90
8008;DHT22;4049;49.468;11.200;2023-09-19T00:19:46;16.80;99.90
8008;DHT22;4049;49.468;11.200;2023-09-19T00:22:17;16.70;99.90
8008;DHT22;4049;49.468;11.200;2023-09-19T00:24:44;16.70;99.90
8008;DHT22;4049;49.468;11.200;2023-09-19T00:27:12;16.70;99.90
8008;DHT22;4049;49.468;11.200;2023-09-19T00:29:39;16.60;99.90
8008;DHT22;4049;49.468;11.200;2023-09-19T00:32:08;16.60;99.90
8008;DHT22;4049;49.468;11.200;2023-09-19T00:34:35;16.60;99.90
8008;DHT22;4049;49.468;11.200;2023-09-19T00:37:02;16.60;99.90
8008;DHT22;4049;49.468;11.200;2023-09-19T00:39:29;16.50;99.90
8008;DHT22;4049;49.468;11.200;2023-09-19T00:41:57;16.50;99.90
8008;DHT22;4049;49.468;11.200;2023-09-19T00:44:23;16.50;99.90
8008;DHT22;4049;49.468;11.200;2023-09-19T00:46:50;16.50;99.90
8008;DHT22;4049;49.468;11.200;2023-09-19T00:49:20;16.40;99.90
8008;DHT22;4049;49.468;11.200;2023-09-19T00:51:48;16.40;99.90
8008;DHT22;4049;49.468;11.200;2023-09-19T00:54:16;16.40;99.90
8008;DHT22;4049;49.468;11.200;2023-09-19T00:56:44;16.40;99.90
8008;DHT22;4049;49.468;11.200;2023-09-19T00:59:12;16.30;99.90
8008;DHT22;4049;49.468;11.200;2023-09-19T01:01:39;16.40;99.90
8008;DHT22;4049;49.468;11.200;2023-09-19T01:04:06;16.30;99.90
8008;DHT22;4049;49.468;11.200;2023-09-19T01:06:34;16.30;99.90
8008;DHT22;4049;49.468;11.200;2023-09-19T01:09:02;16.30;99.90
8008;DHT22;4049;49.468;11.200;2023-09-19T01:11:35;16.30;99.90
8008;DHT22;4049;49.468;11.200;2023-09-19T01:14:15;16.30;99.90
8008;DHT22;4049;49.468;11.200;2023-09-19T01:16:49;16.20;99.90
8008;DHT22;4049;49.468;11.200;2023-09-19T01:22:24;16.20;99.90
8008;DHT22;4049;49.468;11.200;2023-09-19T01:28:14;16.20;99.90
8008;DHT22;4049;49.468;11.200;2023-09-19T01:30:52;16.20;99.90
8008;DHT22;4049;49.468;11.200;2023-09-19T01:33:20;16.20;99.90
8008;DHT22;4049;49.468;11.200;2023-09-19T01:35:48;16.20;99.90
8008;DHT22;4049;49.468;11.200;2023-09-19T01:38:16;16.20;99.90
8008;DHT22;4049;49.468;11.200;2023-09-19T01:40:56;16.10;99.90
8008;DHT22;4049;49.468;11.200;2023-09-19T01:43:30;16.10;99.90
8008;DHT22;4049;49.468;11.200;2023-09-19T01:46:05;16.10;99.90
8008;DHT22;4049;49.468;11.200;2023-09-19T01:48:41;16.10;99.90
8008;DHT22;4049;49.468;11.200;2023-09-19T01:51:42;16.10;99.90
8008;DHT22;4049;49.468;11.200;2023-09-19T01:54:12;16.10;99.90
8008;DHT22;4049;49.468;11.200;2023-09-19T01:56:48;16.10;99.90
8008;DHT22;4049;49.468;11.200;2023-09-19T01:59:22;16.10;99.90
8008;DHT22;4049;49.468;11.200;2023-09-19T02:01:54;16.10;99.90
8008;DHT22;4049;49.468;11.200;2023-09-19T02:04:22;16.00;99.90
8008;DHT22;4049;49.468;11.200;2023-09-19T02:06:48;16.00;99.90
8008;DHT22;4049;49.468;11.200;2023-09-19T02:09:17;16.00;99.90
8008;DHT22;4049;49.468;11.200;2023-09-19T02:11:44;16.00;99.90
8008;DHT22;4049;49.468;11.200;2023-09-19T02:14:12;16.00;99.90
8008;DHT22;4049;49.468;11.200;2023-09-19T02:16:39;16.10;99.90
8008;DHT22;4049;49.468;11.200;2023-09-19T02:19:08;16.10;99.90
8008;DHT22;4049;49.468;11.200;2023-09-19T02:21:35;16.10;99.90
8008;DHT22;4049;49.468;11.200;2023-09-19T02:24:02;16.10;99.90
8008;DHT22;4049;49.468;11.200;2023-09-19T02:26:29;16.10;99.90
8008;DHT22;4049;49.468;11.200;2023-09-19T02:28:56;16.10;99.90
8008;DHT22;4049;49.468;11.200;2023-09-19T02:31:23;16.10;99.90
8008;DHT22;4049;49.468;11.200;2023-09-19T02:33:50;16.00;99.90
8008;DHT22;4049;49.468;11.200;2023-09-19T02:36:18;16.10;99.90
8008;DHT22;4049;49.468;11.200;2023-09-19T02:38:45;16.10;99.90
8008;DHT22;4049;49.468;11.200;2023-09-19T02:41:12;16.10;99.90
8008;DHT22;4049;49.468;11.200;2023-09-19T02:43:39;16.10;99.90
8008;DHT22;4049;49.468;11.200;2023-09-19T02:46:08;16.10;99.90
8008;DHT22;4049;49.468;11.200;2023-09-19T02:48:37;16.10;99.90
8008;DHT22;4049;49.468;11.200;2023-09-19T02:51:04;16.00;99.90
8008;DHT22;4049;49.468;11.200;2023-09-19T02:53:32;16.10;99.90
8008;DHT22;4049;49.468;11.200;2023-09-19T02:55:59;16.00;99.90
8008;DHT22;4049;49.468;11.200;2023-09-19T02:58:26;16.10;99.90
8008;DHT22;4049;49.468;11.200;2023-09-19T03:00:56;16.10;99.90
8008;DHT22;4049;49.468;11.200;2023-09-19T03:03:23;16.10;99.90
8008;DHT22;4049;49.468;11.200;2023-09-19T03:05:50;16.10;99.90
8008;DHT22;4049;49.468;11.200;2023-09-19T03:08:18;16.10;99.90
8008;DHT22;4049;49.468;11.200;2023-09-19T03:10:47;16.10;99.90
8008;DHT22;4049;49.468;11.200;2023-09-19T03:13:14;16.10;99.90
8008;DHT22;4049;49.468;11.200;2023-09-19T03:15:41;16.10;99.90
8008;DHT22;4049;49.468;11.200;2023-09-19T03:18:10;16.10;99.90
8008;DHT22;4049;49.468;11.200;2023-09-19T03:20:36;16.10;99.90
8008;DHT22;4049;49.468;11.200;2023-09-19T03:23:04;16.10;99.90
8008;DHT22;4049;49.468;11.200;2023-09-19T03:25:34;16.10;99.90
8008;DHT22;4049;49.468;11.200;2023-09-19T03:28:03;16.10;99.90
8008;DHT22;4049;49.468;11.200;2023-09-19T03:30:31;16.00;99.90
8008;DHT22;4049;49.468;11.200;2023-09-19T03:32:59;16.10;99.90
8008;DHT22;4049;49.468;11.200;2023-09-19T03:35:26;16.10;99.90
8008;DHT22;4049;49.468;11.200;2023-09-19T03:37:53;16.00;99.90
8008;DHT22;4049;49.468;11.200;2023-09-19T03:40:20;16.10;99.90
8008;DHT22;4049;49.468;11.200;2023-09-19T03:42:47;16.00;99.90
8008;DHT22;4049;49.468;11.200;2023-09-19T03:45:15;16.10;99.90
8008;DHT22;4049;49.468;11.200;2023-09-19T03:47:43;16.00;99.90
8008;DHT22;4049;49.468;11.200;2023-09-19T03:50:12;16.00;99.90
8008;DHT22;4049;49.468;11.200;2023-09-19T03:52:43;16.00;99.90
8008;DHT22;4049;49.468;11.200;2023-09-19T03:55:10;16.10;99.90
8008;DHT22;4049;49.468;11.200;2023-09-19T03:57:37;16.00;99.90
8008;DHT22;4049;49.468;11.200;2023-09-19T04:00:04;16.00;99.90
8008;DHT22;4049;49.468;11.200;2023-09-19T04:02:38;16.00;99.90
8008;DHT22;4049;49.468;11.200;2023-09-19T04:05:05;16.00;99.90
8008;DHT22;4049;49.468;11.200;2023-09-19T04:07:33;15.90;99.90
8008;DHT22;4049;49.468;11.200;2023-09-19T04:10:00;15.90;99.90
8008;DHT22;4049;49.468;11.200;2023-09-19T04:12:26;15.90;99.90
8008;DHT22;4049;49.468;11.200;2023-09-19T04:14:53;15.90;99.90
8008;DHT22;4049;49.468;11.200;2023-09-19T04:17:20;15.80;99.90
8008;DHT22;4049;49.468;11.200;2023-09-19T04:19:50;15.80;99.90
8008;DHT22;4049;49.468;11.200;2023-09-19T04:22:17;15.90;99.90
8008;DHT22;4049;49.468;11.200;2023-09-19T04:24:46;15.90;99.90
8008;DHT22;4049;49.468;11.200;2023-09-19T04:27:13;15.80;99.90
8008;DHT22;4049;49.468;11.200;2023-09-19T04:29:41;15.80;99.90
8008;DHT22;4049;49.468;11.200;2023-09-19T04:32:08;15.80;99.90
8008;DHT22;4049;49.468;11.200;2023-09-19T04:34:35;15.80;99.90
8008;DHT22;4049;49.468;11.200;2023-09-19T04:37:05;15.80;99.90
8008;DHT22;4049;49.468;11.200;2023-09-19T04:39:32;15.80;99.90
8008;DHT22;4049;49.468;11.200;2023-09-19T04:41:59;15.80;99.90
8008;DHT22;4049;49.468;11.200;2023-09-19T04:44:26;15.80;99.90
8008;DHT22;4049;49.468;11.200;2023-09-19T04:46:53;15.80;99.90
8008;DHT22;4049;49.468;11.200;2023-09-19T04:49:20;15.80;99.90
8008;DHT22;4049;49.468;11.200;2023-09-19T04:51:48;15.90;99.90
8008;DHT22;4049;49.468;11.200;2023-09-19T04:54:16;15.90;99.90
8008;DHT22;4049;49.468;11.200;2023-09-19T04:56:43;15.80;99.90
8008;DHT22;4049;49.468;11.200;2023-09-19T04:59:10;15.90;99.90
8008;DHT22;4049;49.468;11.200;2023-09-19T05:01:37;15.90;99.90
8008;DHT22;4049;49.468;11.200;2023-09-19T05:04:04;15.90;99.90
8008;DHT22;4049;49.468;11.200;2023-09-19T05:06:31;15.90;99.90
8008;DHT22;4049;49.468;11.200;2023-09-19T05:09:01;16.00;99.90
8008;DHT22;4049;49.468;11.200;2023-09-19T05:11:32;15.80;99.90
8008;DHT22;4049;49.468;11.200;2023-09-19T05:13:59;15.90;99.90
8008;DHT22;4049;49.468;11.200;2023-09-19T05:16:29;16.00;99.90
8008;DHT22;4049;49.468;11.200;2023-09-19T05:18:56;15.90;99.90
8008;DHT22;4049;49.468;11.200;2023-09-19T05:21:23;15.90;99.90
8008;DHT22;4049;49.468;11.200;2023-09-19T05:23:51;15.80;99.90
8008;DHT22;4049;49.468;11.200;2023-09-19T05:26:19;15.90;99.90
8008;DHT22;4049;49.468;11.200;2023-09-19T05:28:47;15.90;99.90
8008;DHT22;4049;49.468;11.200;2023-09-19T05:31:14;15.90;99.90
8008;DHT22;4049;49.468;11.200;2023-09-19T05:33:42;15.90;99.90
8008;DHT22;4049;49.468;11.200;2023-09-19T05:36:09;15.90;99.90
8008;DHT22;4049;49.468;11.200;2023-09-19T05:38:37;15.90;99.90
8008;DHT22;4049;49.468;11.200;2023-09-19T05:41:06;15.90;99.90
8008;DHT22;4049;49.468;11.200;2023-09-19T05:43:33;16.00;99.90
8008;DHT22;4049;49.468;11.200;2023-09-19T05:46:10;16.00;99.90
8008;DHT22;4049;49.468;11.200;2023-09-19T05:48:37;15.90;99.90
8008;DHT22;4049;49.468;11.200;2023-09-19T05:51:05;16.00;99.90
8008;DHT22;4049;49.468;11.200;2023-09-19T05:53:31;16.00;99.90
8008;DHT22;4049;49.468;11.200;2023-09-19T05:55:58;16.00;99.90
8008;DHT22;4049;49.468;11.200;2023-09-19T05:58:26;16.10;99.90
8008;DHT22;4049;49.468;11.200;2023-09-19T06:00:53;16.00;99.90
8008;DHT22;4049;49.468;11.200;2023-09-19T06:03:22;16.00;99.90
8008;DHT22;4049;49.468;11.200;2023-09-19T06:05:49;16.00;99.90
8008;DHT22;4049;49.468;11.200;2023-09-19T06:08:18;16.00;99.90
8008;DHT22;4049;49.468;11.200;2023-09-19T06:10:46;16.10;99.90
8008;DHT22;4049;49.468;11.200;2023-09-19T06:13:12;16.10;99.90
8008;DHT22;4049;49.468;11.200;2023-09-19T06:15:40;16.10;99.90
8008;DHT22;4049;49.468;11.200;2023-09-19T06:18:11;16.10;99.90
8008;DHT22;4049;49.468;11.200;2023-09-19T06:20:42;16.10;99.90
8008;DHT22;4049;49.468;11.200;2023-09-19T06:23:10;16.10;99.90
8008;DHT22;4049;49.468;11.200;2023-09-19T06:25:36;16.10;99.90
8008;DHT22;4049;49.468;11.200;2023-09-19T06:28:04;16.10;99.90
8008;DHT22;4049;49.468;11.200;2023-09-19T06:30:34;16.10;99.90
8008;DHT22;4049;49.468;11.200;2023-09-19T06:33:01;16.20;99.90
8008;DHT22;4049;49.468;11.200;2023-09-19T06:35:32;16.20;99.90
8008;DHT22;4049;49.468;11.200;2023-09-19T06:38:02;16.20;99.90
8008;DHT22;4049;49.468;11.200;2023-09-19T06:40:29;16.20;99.90
8008;DHT22;4049;49.468;11.200;2023-09-19T06:42:56;16.20;99.90
8008;DHT22;4049;49.468;11.200;2023-09-19T06:45:23;16.30;99.90
8008;DHT22;4049;49.468;11.200;2023-09-19T06:47:52;16.30;99.90
8008;DHT22;4049;49.468;11.200;2023-09-19T06:50:23;16.30;99.90
8008;DHT22;4049;49.468;11.200;2023-09-19T06:52:52;16.30;99.90
8008;DHT22;4049;49.468;11.200;2023-09-19T06:55:21;16.40;99.90
8008;DHT22;4049;49.468;11.200;2023-09-19T06:57:50;16.40;99.90
8008;DHT22;4049;49.468;11.200;2023-09-19T07:00:20;16.50;99.90
8008;DHT22;4049;49.468;11.200;2023-09-19T07:03:01;16.50;99.90
8008;DHT22;4049;49.468;11.200;2023-09-19T07:05:30;16.60;99.90
8008;DHT22;4049;49.468;11.200;2023-09-19T07:07:58;16.60;99.90
8008;DHT22;4049;49.468;11.200;2023-09-19T07:10:28;16.70;99.90
8008;DHT22;4049;49.468;11.200;2023-09-19T07:12:56;16.70;99.90
8008;DHT22;4049;49.468;11.200;2023-09-19T07:15:23;16.70;99.90
8008;DHT22;4049;49.468;11.200;2023-09-19T07:17:51;16.80;99.90
8008;DHT22;4049;49.468;11.200;2023-09-19T07:20:19;16.90;99.90
8008;DHT22;4049;49.468;11.200;2023-09-19T07:22:46;16.90;99.90
8008;DHT22;4049;49.468;11.200;2023-09-19T07:25:13;17.00;99.90
8008;DHT22;4049;49.468;11.200;2023-09-19T07:27:42;17.00;99.90
8008;DHT22;4049;49.468;11.200;2023-09-19T07:30:10;17.00;99.90
8008;DHT22;4049;49.468;11.200;2023-09-19T07:32:37;17.00;99.90
8008;DHT22;4049;49.468;11.200;2023-09-19T07:35:07;17.00;99.90
8008;DHT22;4049;49.468;11.200;2023-09-19T07:37:34;17.10;99.90
8008;DHT22;4049;49.468;11.200;2023-09-19T07:40:02;17.10;99.90
8008;DHT22;4049;49.468;11.200;2023-09-19T07:42:32;17.10;99.90
8008;DHT22;4049;49.468;11.200;2023-09-19T07:45:02;17.10;99.90
8008;DHT22;4049;49.468;11.200;2023-09-19T07:47:29;17.20;99.90
8008;DHT22;4049;49.468;11.200;2023-09-19T07:49:58;17.20;99.90
8008;DHT22;4049;49.468;11.200;2023-09-19T07:52:25;17.20;99.90
8008;DHT22;4049;49.468;11.200;2023-09-19T07:54:53;17.20;99.90
8008;DHT22;4049;49.468;11.200;2023-09-19T07:57:20;17.20;99.90
8008;DHT22;4049;49.468;11.200;2023-09-19T07:59:47;17.20;99.90
8008;DHT22;4049;49.468;11.200;2023-09-19T08:02:15;17.30;99.90
8008;DHT22;4049;49.468;11.200;2023-09-19T08:04:44;17.20;99.90
8008;DHT22;4049;49.468;11.200;2023-09-19T08:07:12;17.30;99.90
8008;DHT22;4049;49.468;11.200;2023-09-19T08:09:39;17.20;99.90
8008;DHT22;4049;49.468;11.200;2023-09-19T08:12:06;17.20;99.90
8008;DHT22;4049;49.468;11.200;2023-09-19T08:14:33;17.30;99.90
8008;DHT22;4049;49.468;11.200;2023-09-19T08:17:00;17.30;99.90
8008;DHT22;4049;49.468;11.200;2023-09-19T08:19:28;17.40;99.90
8008;DHT22;4049;49.468;11.200;2023-09-19T08:21:57;17.50;99.90
8008;DHT22;4049;49.468;11.200;2023-09-19T08:24:25;17.60;99.90
8008;DHT22;4049;49.468;11.200;2023-09-19T08:26:54;17.60;99.90
8008;DHT22;4049;49.468;11.200;2023-09-19T08:29:21;17.70;99.90
8008;DHT22;4049;49.468;11.200;2023-09-19T08:31:53;17.60;99.90
8008;DHT22;4049;49.468;11.200;2023-09-19T08:34:21;17.60;99.90
8008;DHT22;4049;49.468;11.200;2023-09-19T08:36:50;17.60;99.90
8008;DHT22;4049;49.468;11.200;2023-09-19T08:39:18;17.60;99.90
8008;DHT22;4049;49.468;11.200;2023-09-19T08:41:45;17.60;99.90
8008;DHT22;4049;49.468;11.200;2023-09-19T08:44:12;17.60;99.90
8008;DHT22;4049;49.468;11.200;2023-09-19T08:46:41;17.60;99.90
8008;DHT22;4049;49.468;11.200;2023-09-19T08:49:15;17.70;99.90
8008;DHT22;4049;49.468;11.200;2023-09-19T08:51:53;17.70;99.90
8008;DHT22;4049;49.468;11.200;2023-09-19T08:54:23;17.70;99.90
8008;DHT22;4049;49.468;11.200;2023-09-19T08:56:53;17.80;99.90
8008;DHT22;4049;49.468;11.200;2023-09-19T08:59:22;17.90;99.90
8008;DHT22;4049;49.468;11.200;2023-09-19T09:01:52;18.00;99.90
8008;DHT22;4049;49.468;11.200;2023-09-19T09:04:20;18.10;99.90
8008;DHT22;4049;49.468;11.200;2023-09-19T09:06:49;18.20;99.90
8008;DHT22;4049;49.468;11.200;2023-09-19T09:09:20;18.30;99.90
8008;DHT22;4049;49.468;11.200;2023-09-19T09:11:48;18.30;99.90
8008;DHT22;4049;49.468;11.200;2023-09-19T09:14:17;18.40;99.90
8008;DHT22;4049;49.468;11.200;2023-09-19T09:16:45;18.50;99.90
8008;DHT22;4049;49.468;11.200;2023-09-19T09:19:14;18.50;99.90
8008;DHT22;4049;49.468;11.200;2023-09-19T09:21:49;18.60;99.90
8008;DHT22;4049;49.468;11.200;2023-09-19T09:24:28;18.70;99.90
8008;DHT22;4049;49.468;11.200;2023-09-19T09:26:56;18.60;99.90
8008;DHT22;4049;49.468;11.200;2023-09-19T09:29:41;18.70;99.90
8008;DHT22;4049;49.468;11.200;2023-09-19T09:32:19;18.70;99.90
8008;DHT22;4049;49.468;11.200;2023-09-19T09:34:47;18.70;99.90
8008;DHT22;4049;49.468;11.200;2023-09-19T09:37:15;18.60;99.90
8008;DHT22;4049;49.468;11.200;2023-09-19T09:39:50;18.60;99.90
8008;DHT22;4049;49.468;11.200;2023-09-19T09:42:34;18.50;99.90
8008;DHT22;4049;49.468;11.200;2023-09-19T09:45:17;18.50;99.90
8008;DHT22;4049;49.468;11.200;2023-09-19T09:47:54;18.50;99.90
8008;DHT22;4049;49.468;11.200;2023-09-19T09:50:28;18.50;99.90
8008;DHT22;4049;49.468;11.200;2023-09-19T09:53:20;18.50;99.90
8008;DHT22;4049;49.468;11.200;2023-09-19T09:56:02;18.40;99.90
8008;DHT22;4049;49.468;11.200;2023-09-19T09:58:31;18.40;99.90
8008;DHT22;4049;49.468;11.200;2023-09-19T10:00:59;18.50;99.90
8008;DHT22;4049;49.468;11.200;2023-09-19T10:03:33;18.50;99.90
8008;DHT22;4049;49.468;11.200;2023-09-19T10:06:06;18.50;99.90
8008;DHT22;4049;49.468;11.200;2023-09-19T10:09:00;18.50;99.90
8008;DHT22;4049;49.468;11.200;2023-09-19T10:11:32;18.50;99.90
8008;DHT22;4049;49.468;11.200;2023-09-19T10:14:03;18.50;99.90
8008;DHT22;4049;49.468;11.200;2023-09-19T10:16:32;18.50;99.90
8008;DHT22;4049;49.468;11.200;2023-09-19T10:19:02;18.50;99.90
8008;DHT22;4049;49.468;11.200;2023-09-19T10:21:31;18.60;99.90
8008;DHT22;4049;49.468;11.200;2023-09-19T10:23:58;18.60;99.90
8008;DHT22;4049;49.468;11.200;2023-09-19T10:26:27;18.60;99.90
8008;DHT22;4049;49.468;11.200;2023-09-19T10:28:59;18.70;99.90
8008;DHT22;4049;49.468;11.200;2023-09-19T10:31:28;18.80;99.90
8008;DHT22;4049;49.468;11.200;2023-09-19T10:33:55;18.80;99.90
8008;DHT22;4049;49.468;11.200;2023-09-19T10:36:24;18.90;99.90
8008;DHT22;4049;49.468;11.200;2023-09-19T10:38:53;18.90;99.90
8008;DHT22;4049;49.468;11.200;2023-09-19T10:41:22;19.00;99.90
8008;DHT22;4049;49.468;11.200;2023-09-19T10:43:49;19.00;99.90
8008;DHT22;4049;49.468;11.200;2023-09-19T10:46:21;19.10;99.90
8008;DHT22;4049;49.468;11.200;2023-09-19T10:48:50;19.20;99.90
8008;DHT22;4049;49.468;11.200;2023-09-19T10:51:23;19.20;99.90
8008;DHT22;4049;49.468;11.200;2023-09-19T10:53:53;19.20;99.90
8008;DHT22;4049;49.468;11.200;2023-09-19T10:56:31;19.30;99.90
8008;DHT22;4049;49.468;11.200;2023-09-19T10:59:06;19.20;99.90
8008;DHT22;4049;49.468;11.200;2023-09-19T11:01:46;19.20;99.90
8008;DHT22;4049;49.468;11.200;2023-09-19T11:04:24;19.30;99.90
8008;DHT22;4049;49.468;11.200;2023-09-19T11:07:02;19.30;99.90
8008;DHT22;4049;49.468;11.200;2023-09-19T11:09:46;19.30;99.90
8008;DHT22;4049;49.468;11.200;2023-09-19T11:12:48;19.30;99.90
8008;DHT22;4049;49.468;11.200;2023-09-19T11:18:53;19.40;99.90
8008;DHT22;4049;49.468;11.200;2023-09-19T11:21:52;19.40;99.90
8008;DHT22;4049;49.468;11.200;2023-09-19T11:24:30;19.60;99.90
8008;DHT22;4049;49.468;11.200;2023-09-19T11:27:16;19.70;99.90
8008;DHT22;4049;49.468;11.200;2023-09-19T11:29:44;19.80;99.90
8008;DHT22;4049;49.468;11.200;2023-09-19T11:32:12;19.90;99.90
8008;DHT22;4049;49.468;11.200;2023-09-19T11:34:44;19.80;99.90
8008;DHT22;4049;49.468;11.200;2023-09-19T11:40:36;19.80;99.90
8008;DHT22;4049;49.468;11.200;2023-09-19T11:43:28;20.00;99.90
8008;DHT22;4049;49.468;11.200;2023-09-19T11:46:03;20.00;99.90
8008;DHT22;4049;49.468;11.200;2023-09-19T11:48:32;20.10;99.90
8008;DHT22;4049;49.468;11.200;2023-09-19T11:51:03;20.10;99.90
8008;DHT22;4049;49.468;11.200;2023-09-19T11:53:40;20.20;99.90
8008;DHT22;4049;49.468;11.200;2023-09-19T11:56:09;20.20;99.90
8008;DHT22;4049;49.468;11.200;2023-09-19T11:58:37;20.20;99.90
8008;DHT22;4049;49.468;11.200;2023-09-19T12:01:05;20.30;99.90
8008;DHT22;4049;49.468;11.200;2023-09-19T12:03:42;20.30;99.90
8008;DHT22;4049;49.468;11.200;2023-09-19T12:06:15;20.30;99.90
8008;DHT22;4049;49.468;11.200;2023-09-19T12:08:43;20.30;99.90
8008;DHT22;4049;49.468;11.200;2023-09-19T12:11:13;20.30;99.90
8008;DHT22;4049;49.468;11.200;2023-09-19T12:13:45;20.20;99.90
8008;DHT22;4049;49.468;11.200;2023-09-19T12:16:15;20.10;99.90
8008;DHT22;4049;49.468;11.200;2023-09-19T12:18:43;20.10;99.90
8008;DHT22;4049;49.468;11.200;2023-09-19T12:21:27;20.10;99.90
8008;DHT22;4049;49.468;11.200;2023-09-19T12:24:11;20.00;99.90
8008;DHT22;4049;49.468;11.200;2023-09-19T12:26:42;20.00;99.90
8008;DHT22;4049;49.468;11.200;2023-09-19T12:29:16;20.00;99.90
8008;DHT22;4049;49.468;11.200;2023-09-19T12:31:53;20.00;99.90
8008;DHT22;4049;49.468;11.200;2023-09-19T12:34:23;20.00;99.90
8008;DHT22;4049;49.468;11.200;2023-09-19T12:37:05;19.90;99.90
8008;DHT22;4049;49.468;11.200;2023-09-19T12:39:38;19.90;99.90
8008;DHT22;4049;49.468;11.200;2023-09-19T12:42:08;20.00;99.90
8008;DHT22;4049;49.468;11.200;2023-09-19T12:44:36;20.00;99.90
8008;DHT22;4049;49.468;11.200;2023-09-19T12:47:11;20.00;99.90
8008;DHT22;4049;49.468;11.200;2023-09-19T12:50:10;19.90;99.90
8008;DHT22;4049;49.468;11.200;2023-09-19T12:52:43;19.90;99.90
8008;DHT22;4049;49.468;11.200;2023-09-19T12:55:23;19.90;99.90
8008;DHT22;4049;49.468;11.200;2023-09-19T12:58:03;20.00;99.90
8008;DHT22;4049;49.468;11.200;2023-09-19T13:00:35;20.10;99.90
8008;DHT22;4049;49.468;11.200;2023-09-19T13:03:12;20.30;99.90
8008;DHT22;4049;49.468;11.200;2023-09-19T13:05:48;20.30;99.90
8008;DHT22;4049;49.468;11.200;2023-09-19T13:08:24;20.30;99.90
8008;DHT22;4049;49.468;11.200;2023-09-19T13:11:08;20.30;99.90
8008;DHT22;4049;49.468;11.200;2023-09-19T13:13:39;20.30;99.90
8008;DHT22;4049;49.468;11.200;2023-09-19T13:16:07;20.30;99.90
8008;DHT22;4049;49.468;11.200;2023-09-19T13:18:44;20.30;99.90
8008;DHT22;4049;49.468;11.200;2023-09-19T13:21:12;20.30;99.90
8008;DHT22;4049;49.468;11.200;2023-09-19T13:23:51;20.30;99.90
8008;DHT22;4049;49.468;11.200;2023-09-19T13:26:18;20.40;99.90
8008;DHT22;4049;49.468;11.200;2023-09-19T13:28:45;20.40;99.90
8008;DHT22;4049;49.468;11.200;2023-09-19T13:31:13;20.40;99.90
8008;DHT22;4049;49.468;11.200;2023-09-19T13:33:44;20.50;99.90
8008;DHT22;4049;49.468;11.200;2023-09-19T13:36:11;20.60;99.90
8008;DHT22;4049;49.468;11.200;2023-09-19T13:38:39;20.60;99.90
8008;DHT22;4049;49.468;11.200;2023-09-19T13:41:09;20.60;99.90
8008;DHT22;4049;49.468;11.200;2023-09-19T13:43:36;20.60;99.90
8008;DHT22;4049;49.468;11.200;2023-09-19T13:46:04;20.70;99.90
8008;DHT22;4049;49.468;11.200;2023-09-19T13:48:33;20.80;99.90
8008;DHT22;4049;49.468;11.200;2023-09-19T13:51:02;20.90;99.90
8008;DHT22;4049;49.468;11.200;2023-09-19T13:53:30;21.00;99.90
8008;DHT22;4049;49.468;11.200;2023-09-19T13:55:57;21.10;99.90
8008;DHT22;4049;49.468;11.200;2023-09-19T13:58:25;21.10;99.90
8008;DHT22;4049;49.468;11.200;2023-09-19T14:00:52;21.20;99.90
8008;DHT22;4049;49.468;11.200;2023-09-19T14:03:21;21.40;99.90
8008;DHT22;4049;49.468;11.200;2023-09-19T14:05:48;21.50;99.90
8008;DHT22;4049;49.468;11.200;2023-09-19T14:08:17;21.70;99.90
8008;DHT22;4049;49.468;11.200;2023-09-19T14:10:44;21.70;99.90
8008;DHT22;4049;49.468;11.200;2023-09-19T14:13:11;21.90;99.90
8008;DHT22;4049;49.468;11.200;2023-09-19T14:15:40;21.80;99.90
8008;DHT22;4049;49.468;11.200;2023-09-19T14:18:08;21.80;99.90
8008;DHT22;4049;49.468;11.200;2023-09-19T14:20:38;21.80;99.90
8008;DHT22;4049;49.468;11.200;2023-09-19T14:23:05;21.70;99.90
8008;DHT22;4049;49.468;11.200;2023-09-19T14:25:34;21.70;99.90
8008;DHT22;4049;49.468;11.200;2023-09-19T14:28:01;21.70;99.90
8008;DHT22;4049;49.468;11.200;2023-09-19T14:30:28;21.60;99.90
8008;DHT22;4049;49.468;11.200;2023-09-19T14:32:56;21.60;99.90
8008;DHT22;4049;49.468;11.200;2023-09-19T14:35:24;21.70;99.90
8008;DHT22;4049;49.468;11.200;2023-09-19T14:37:51;21.70;99.90
8008;DHT22;4049;49.468;11.200;2023-09-19T14:40:18;21.70;99.90
8008;DHT22;4049;49.468;11.200;2023-09-19T14:42:45;21.50;99.90
8008;DHT22;4049;49.468;11.200;2023-09-19T14:45:12;21.40;99.90
8008;DHT22;4049;49.468;11.200;2023-09-19T14:47:42;21.40;99.90
8008;DHT22;4049;49.468;11.200;2023-09-19T14:50:10;21.40;99.90
8008;DHT22;4049;49.468;11.200;2023-09-19T14:52:38;21.50;99.90
8008;DHT22;4049;49.468;11.200;2023-09-19T14:55:08;21.60;99.90
8008;DHT22;4049;49.468;11.200;2023-09-19T14:57:40;21.60;99.90
8008;DHT22;4049;49.468;11.200;2023-09-19T15:00:08;21.50;99.90
8008;DHT22;4049;49.468;11.200;2023-09-19T15:02:38;21.40;99.90
8008;DHT22;4049;49.468;11.200;2023-09-19T15:05:06;21.40;99.90
8008;DHT22;4049;49.468;11.200;2023-09-19T15:07:36;21.40;99.90
8008;DHT22;4049;49.468;11.200;2023-09-19T15:10:04;21.40;99.90
8008;DHT22;4049;49.468;11.200;2023-09-19T15:12:35;21.40;99.90
8008;DHT22;4049;49.468;11.200;2023-09-19T15:15:03;21.30;99.90
8008;DHT22;4049;49.468;11.200;2023-09-19T15:17:32;21.30;99.90
8008;DHT22;4049;49.468;11.200;2023-09-19T15:19:59;21.30;99.90
8008;DHT22;4049;49.468;11.200;2023-09-19T15:22:27;21.30;99.90
8008;DHT22;4049;49.468;11.200;2023-09-19T15:24:55;21.30;99.90
8008;DHT22;4049;49.468;11.200;2023-09-19T15:27:22;21.20;99.90
8008;DHT22;4049;49.468;11.200;2023-09-19T15:29:49;21.20;99.90
8008;DHT22;4049;49.468;11.200;2023-09-19T15:32:16;21.20;99.90
8008;DHT22;4049;49.468;11.200;2023-09-19T15:34:43;21.20;99.90
8008;DHT22;4049;49.468;11.200;2023-09-19T15:37:10;21.20;99.90
8008;DHT22;4049;49.468;11.200;2023-09-19T15:39:37;21.20;99.90
8008;DHT22;4049;49.468;11.200;2023-09-19T15:42:05;21.10;99.90
8008;DHT22;4049;49.468;11.200;2023-09-19T15:44:32;21.00;99.90
8008;DHT22;4049;49.468;11.200;2023-09-19T15:46:59;21.00;99.90
8008;DHT22;4049;49.468;11.200;2023-09-19T15:49:26;21.00;99.90
8008;DHT22;4049;49.468;11.200;2023-09-19T15:51:53;21.00;99.90
8008;DHT22;4049;49.468;11.200;2023-09-19T15:54:20;20.90;99.90
8008;DHT22;4049;49.468;11.200;2023-09-19T15:56:47;20.80;99.90
8008;DHT22;4049;49.468;11.200;2023-09-19T15:59:18;20.80;99.90
8008;DHT22;4049;49.468;11.200;2023-09-19T16:01:45;20.70;99.90
8008;DHT22;4049;49.468;11.200;2023-09-19T16:04:12;20.70;99.90
8008;DHT22;4049;49.468;11.200;2023-09-19T16:06:40;20.60;99.90
8008;DHT22;4049;49.468;11.200;2023-09-19T16:09:08;20.60;99.90
8008;DHT22;4049;49.468;11.200;2023-09-19T16:11:35;20.50;99.90
8008;DHT22;4049;49.468;11.200;2023-09-19T16:14:04;20.50;99.90